Terminal Aerodrome Forecast
Issued by NWS

Current Version | Previous Version | Text Only | Print | Product List | Glossary On
Versions: 1 2 3 4 5 6 7 8 9 10 11 12 13
000
FTUS42 TJSJ 231130
TAFJBQ
TAF
TJBQ 231130Z 2312/2412 09005KT P6SM FEW030
     FM231500 07013G19KT P6SM FEW030
     FM231700 08015KT P6SM VCTS SCT022CB BKN040 BKN050
     FM232300 10007KT P6SM VCSH FEW022 SCT035 SCT100=

USA.gov is the U.S. government's official web portal to all federal, state and local government web resources and services.